createdAt,value
2016-11-02T00:00:05.763Z,36.96
2016-11-02T00:01:05.165Z,37.44
2016-11-02T00:02:04.765Z,37.44
2016-11-02T00:03:05.603Z,37.34
2016-11-02T00:04:04.921Z,37.44
2016-11-02T00:05:04.721Z,37.44
2016-11-02T00:06:05.761Z,37.44
2016-11-02T00:07:05.380Z,37.44
2016-11-02T00:08:04.706Z,37.34
2016-11-02T00:09:05.849Z,37.34
2016-11-02T00:10:05.576Z,37.15
2016-11-02T00:11:06.271Z,37.24
2016-11-02T00:12:05.952Z,37.34
2016-11-02T00:13:05.595Z,37.44
2016-11-02T00:14:05.062Z,37.34
2016-11-02T00:15:05.883Z,37.24
2016-11-02T00:16:05.712Z,37.34
2016-11-02T00:17:05.206Z,37.15
2016-11-02T00:18:06.034Z,36.96
2016-11-02T00:19:05.888Z,37.34
2016-11-02T00:20:05.267Z,37.15
2016-11-02T00:21:06.117Z,37.34
2016-11-02T00:22:05.965Z,37.44
2016-11-02T00:23:05.271Z,37.24
2016-11-02T00:24:06.238Z,37.24
2016-11-02T00:25:05.830Z,37.23
2016-11-02T00:26:05.442Z,37.44
2016-11-02T00:27:05.152Z,37.15
2016-11-02T00:28:06.256Z,37.34
2016-11-02T00:29:20.079Z,37.24
2016-11-02T00:30:05.186Z,37.44
2016-11-02T00:31:06.229Z,37.24
2016-11-02T00:32:05.722Z,37.24
2016-11-02T00:33:04.911Z,37.34
2016-11-02T00:34:06.303Z,37.23
2016-11-02T00:35:05.814Z,37.44
2016-11-02T00:36:05.224Z,37.24
2016-11-02T00:37:06.153Z,37.34
2016-11-02T00:38:05.983Z,37.15
2016-11-02T00:39:04.931Z,37.24
2016-11-02T00:40:04.934Z,37.44
2016-11-02T00:41:06.056Z,37.34
2016-11-02T00:42:05.460Z,37.15
2016-11-02T00:43:06.333Z,36.96
2016-11-02T00:44:06.177Z,36.86
2016-11-02T00:45:05.540Z,37.24
2016-11-02T00:46:06.460Z,36.86
2016-11-02T00:47:06.427Z,36.86
2016-11-02T00:48:05.296Z,36.86
2016-11-02T00:49:05.312Z,36.96
2016-11-02T00:50:06.158Z,37.05
2016-11-02T00:51:05.809Z,36.76
2016-11-02T00:52:05.344Z,36.86
2016-11-02T00:53:06.451Z,36.86
2016-11-02T00:54:05.946Z,36.76
2016-11-02T00:55:05.381Z,37.05
2016-11-02T00:56:06.185Z,36.76
2016-11-02T00:57:06.111Z,36.76
2016-11-02T00:58:05.546Z,36.96
2016-11-02T00:59:06.300Z,36.96
2016-11-02T01:00:05.834Z,36.96
2016-11-02T01:01:05.606Z,36.86
2016-11-02T01:02:05.079Z,36.76
2016-11-02T01:03:06.334Z,36.76
2016-11-02T01:04:05.576Z,36.86
2016-11-02T01:05:06.544Z,36.86
2016-11-02T01:06:06.151Z,36.86
2016-11-02T01:07:05.748Z,36.96
2016-11-02T01:08:05.471Z,36.76
2016-11-02T01:09:06.285Z,36.66
2016-11-02T01:10:20.385Z,36.76
2016-11-02T01:11:05.192Z,36.57
2016-11-02T01:12:06.625Z,36.86
2016-11-02T01:13:05.995Z,36.86
2016-11-02T01:14:05.569Z,36.86
2016-11-02T01:15:06.683Z,36.57
2016-11-02T01:16:05.801Z,36.47
2016-11-02T01:17:05.495Z,36.47
2016-11-02T01:18:06.390Z,36.57
2016-11-02T01:19:07.737Z,36.76
2016-11-02T01:20:05.547Z,36.86
2016-11-02T01:21:06.513Z,36.66
2016-11-02T01:22:06.356Z,36.57
2016-11-02T01:23:05.665Z,36.57
2016-11-02T01:24:05.282Z,36.47
2016-11-02T01:25:06.530Z,36.57
2016-11-02T01:26:05.527Z,36.38
2016-11-02T01:27:05.566Z,36.66
2016-11-02T01:28:08.445Z,36.47
2016-11-02T01:29:23.790Z,36.47
2016-11-02T01:30:05.271Z,36.57
2016-11-02T01:31:06.641Z,36.47
2016-11-02T01:32:05.772Z,36.66
2016-11-02T01:33:05.655Z,36.47
2016-11-02T01:34:06.414Z,36.66
2016-11-02T01:35:06.215Z,36.38
2016-11-02T01:36:05.628Z,36.66
2016-11-02T01:37:06.501Z,36.47
2016-11-02T01:38:06.333Z,36.47
2016-11-02T01:39:07.300Z,36.47
2016-11-02T01:40:06.608Z,36.57
2016-11-02T01:41:06.450Z,36.57
2016-11-02T01:42:05.698Z,36.47
2016-11-02T01:43:05.364Z,36.57
2016-11-02T01:44:06.646Z,36.47
2016-11-02T01:45:05.933Z,36.38
2016-11-02T01:46:06.765Z,36.66
2016-11-02T01:47:06.749Z,36.57
2016-11-02T01:48:06.007Z,36.38
2016-11-02T01:49:05.716Z,36.47
2016-11-02T01:50:06.923Z,36.47
2016-11-02T01:51:05.868Z,36.57
2016-11-02T01:52:05.785Z,36.66
2016-11-02T01:53:06.808Z,36.57
2016-11-02T01:54:05.990Z,36.47
2016-11-02T01:55:05.760Z,36.57
2016-11-02T01:56:06.581Z,36.66
2016-11-02T01:57:06.429Z,36.66
2016-11-02T01:58:05.796Z,36.66
2016-11-02T01:59:06.704Z,36.47
2016-11-02T02:00:06.600Z,36.38
2016-11-02T02:01:05.696Z,36.57
2016-11-02T02:02:06.826Z,36.57
2016-11-02T02:03:08.624Z,36.57
2016-11-02T02:04:05.981Z,36.38
2016-11-02T02:05:06.930Z,36.47
2016-11-02T02:06:06.482Z,36.47
2016-11-02T02:07:06.153Z,36.47
2016-11-02T02:08:05.538Z,36.38
2016-11-02T02:09:06.653Z,36.57
2016-11-02T02:10:06.226Z,36.47
2016-11-02T02:11:05.857Z,36.28
2016-11-02T02:12:08.486Z,36.47
2016-11-02T02:13:06.086Z,36.28
2016-11-02T02:14:05.584Z,36.38
2016-11-02T02:15:06.959Z,36.28
2016-11-02T02:16:06.573Z,36.47
2016-11-02T02:17:05.605Z,36.38
2016-11-02T02:18:06.799Z,36.47
2016-11-02T02:19:06.331Z,36.38
2016-11-02T02:20:05.957Z,36.57
2016-11-02T02:21:05.629Z,36.38
2016-11-02T02:22:06.768Z,36.47
2016-11-02T02:23:06.079Z,36.47
2016-11-02T02:24:07.347Z,36.38
2016-11-02T02:25:06.890Z,36.47
2016-11-02T02:26:05.890Z,36.47
2016-11-02T02:27:05.671Z,36.38
2016-11-02T02:28:07.064Z,36.38
2016-11-02T02:29:20.888Z,36.47
2016-11-02T02:30:06.007Z,36.38
2016-11-02T02:31:07.067Z,36.57
2016-11-02T02:32:06.182Z,36.47
2016-11-02T02:33:06.027Z,36.47
2016-11-02T02:34:07.205Z,36.08
2016-11-02T02:35:06.616Z,36.57
2016-11-02T02:36:06.308Z,36.57
2016-11-02T02:37:06.896Z,36.57
2016-11-02T02:38:06.748Z,36.47
2016-11-02T02:39:06.069Z,36.47
2016-11-02T02:40:06.964Z,36.47
2016-11-02T02:41:06.866Z,36.28
2016-11-02T02:42:05.909Z,36.47
2016-11-02T02:43:07.142Z,36.47
2016-11-02T02:44:06.726Z,36.47
2016-11-02T02:45:07.848Z,36.47
2016-11-02T02:46:07.181Z,36.47
2016-11-02T02:47:07.210Z,36.08
2016-11-02T02:48:06.468Z,35.89
2016-11-02T02:49:06.195Z,35.99
2016-11-02T02:50:07.285Z,35.99
2016-11-02T02:51:06.591Z,35.89
2016-11-02T02:52:06.160Z,35.99
2016-11-02T02:53:07.230Z,36.18
2016-11-02T02:54:06.401Z,36.28
2016-11-02T02:55:06.231Z,35.99
2016-11-02T02:56:06.996Z,35.89
2016-11-02T02:57:06.839Z,35.99
2016-11-02T02:58:06.251Z,36.08
2016-11-02T02:59:21.495Z,35.89
2016-11-02T03:00:06.961Z,35.99
2016-11-02T03:01:06.278Z,35.89
2016-11-02T03:02:07.238Z,35.89
2016-11-02T03:03:06.823Z,35.89
2016-11-02T03:04:06.390Z,36.28
2016-11-02T03:05:07.361Z,35.7
2016-11-02T03:06:07.264Z,35.99
2016-11-02T03:07:06.252Z,35.99
2016-11-02T03:08:05.959Z,35.8
2016-11-02T03:09:08.833Z,36.08
2016-11-02T03:10:06.376Z,35.99
2016-11-02T03:11:06.293Z,35.89
2016-11-02T03:12:07.352Z,36.18
2016-11-02T03:13:06.863Z,35.99
2016-11-02T03:14:06.316Z,36.18
2016-11-02T03:15:07.371Z,35.99
2016-11-02T03:16:06.933Z,36.18
2016-11-02T03:17:06.385Z,35.89
2016-11-02T03:18:07.320Z,36.08
2016-11-02T03:19:06.750Z,36.08
2016-11-02T03:20:07.920Z,35.89
2016-11-02T03:21:06.052Z,35.99
2016-11-02T03:22:07.179Z,35.89
2016-11-02T03:23:06.559Z,36.08
2016-11-02T03:24:06.072Z,36.18
2016-11-02T03:25:06.988Z,35.89
2016-11-02T03:26:06.345Z,36.08
2016-11-02T03:27:07.465Z,35.99
2016-11-02T03:28:07.474Z,36.08
2016-11-02T03:29:08.698Z,36.28
2016-11-02T03:30:06.427Z,35.8
2016-11-02T03:31:07.599Z,35.8
2016-11-02T03:32:06.589Z,35.99
2016-11-02T03:33:06.539Z,35.8
2016-11-02T03:34:07.504Z,36.18
2016-11-02T03:35:07.328Z,35.6
2016-11-02T03:36:06.470Z,35.6
2016-11-02T03:37:07.307Z,36.18
2016-11-02T03:38:06.840Z,36.18
2016-11-02T03:39:06.545Z,36.18
2016-11-02T03:40:07.800Z,35.7
2016-11-02T03:41:07.275Z,36.28
2016-11-02T03:42:06.631Z,36.38
2016-11-02T03:43:06.209Z,36.28
2016-11-02T03:44:07.082Z,36.18
2016-11-02T03:45:06.714Z,36.28
2016-11-02T03:46:07.675Z,36.38
2016-11-02T03:47:07.208Z,36.38
2016-11-02T03:48:06.515Z,36.57
2016-11-02T03:49:06.568Z,35.99
2016-11-02T03:50:07.690Z,35.99
2016-11-02T03:51:06.952Z,36.28
2016-11-02T03:52:06.270Z,36.28
2016-11-02T03:53:09.334Z,36.38
2016-11-02T03:54:06.860Z,35.89
2016-11-02T03:55:06.608Z,35.7
2016-11-02T03:56:07.351Z,35.8
2016-11-02T03:57:07.246Z,35.6
2016-11-02T03:58:06.631Z,35.6
2016-11-02T03:59:08.337Z,35.7
2016-11-02T04:00:07.367Z,35.6
2016-11-02T04:01:06.364Z,35.6
2016-11-02T04:02:07.647Z,35.7
2016-11-02T04:03:07.224Z,35.7
2016-11-02T04:04:06.488Z,35.6
2016-11-02T04:05:07.771Z,35.5
2016-11-02T04:06:07.613Z,35.41
2016-11-02T04:07:06.658Z,35.6
2016-11-02T04:08:06.384Z,35.6
2016-11-02T04:09:07.421Z,35.6
2016-11-02T04:10:07.099Z,35.5
2016-11-02T04:11:06.408Z,35.41
2016-11-02T04:12:07.463Z,35.5
2016-11-02T04:13:06.907Z,35.6
2016-11-02T04:14:06.738Z,35.31
2016-11-02T04:15:07.895Z,35.41
2016-11-02T04:16:07.028Z,35.31
2016-11-02T04:17:06.767Z,35.5
2016-11-02T04:18:07.504Z,35.5
2016-11-02T04:19:07.467Z,35.31
2016-11-02T04:20:06.468Z,35.12
2016-11-02T04:21:06.474Z,35.21
2016-11-02T04:22:07.275Z,35.41
2016-11-02T04:23:06.944Z,35.12
2016-11-02T04:24:08.317Z,35.41
2016-11-02T04:25:07.706Z,35.41
2016-11-02T04:26:07.252Z,35.21
2016-11-02T04:27:06.564Z,35.21
2016-11-02T04:28:07.831Z,35.31
2016-11-02T04:29:21.706Z,35.31
2016-11-02T04:30:06.537Z,35.31
2016-11-02T04:31:08.061Z,35.5
2016-11-02T04:32:07.310Z,35.31
2016-11-02T04:33:06.558Z,35.41
2016-11-02T04:34:07.630Z,35.41
2016-11-02T04:35:08.973Z,35.41
2016-11-02T04:36:06.896Z,35.41
2016-11-02T04:37:08.117Z,35.21
2016-11-02T04:38:07.296Z,35.41
2016-11-02T04:39:06.596Z,35.5
2016-11-02T04:40:07.839Z,35.21
2016-11-02T04:41:07.682Z,35.12
2016-11-02T04:42:06.680Z,35.6
2016-11-02T04:43:08.009Z,35.41
2016-11-02T04:44:07.543Z,35.41
2016-11-02T04:45:06.849Z,35.5
2016-11-02T04:46:08.049Z,35.5
2016-11-02T04:47:07.978Z,35.5
2016-11-02T04:48:06.974Z,35.6
2016-11-02T04:49:06.979Z,35.6
2016-11-02T04:50:07.789Z,35.5
2016-11-02T04:51:07.356Z,35.6
2016-11-02T04:52:06.686Z,35.6
2016-11-02T04:53:08.059Z,35.41
2016-11-02T04:54:07.531Z,35.6
2016-11-02T04:55:07.018Z,35.6
2016-11-02T04:56:08.087Z,35.6
2016-11-02T04:57:07.651Z,35.6
2016-11-02T04:58:06.728Z,35.5
2016-11-02T04:59:09.863Z,35.6
2016-11-02T05:00:07.461Z,35.5
2016-11-02T05:01:07.102Z,35.6
2016-11-02T05:02:06.757Z,35.41
2016-11-02T05:03:07.587Z,35.6
2016-11-02T05:04:07.205Z,35.7
2016-11-02T05:05:08.175Z,35.5
2016-11-02T05:06:08.119Z,35.6
2016-11-02T05:07:07.379Z,35.6
2016-11-02T05:08:06.799Z,35.41
2016-11-02T05:09:08.216Z,35.5
2016-11-02T05:10:08.314Z,35.31
2016-11-02T05:11:07.184Z,35.21
2016-11-02T05:12:08.229Z,35.41
2016-11-02T05:13:07.310Z,35.41
2016-11-02T05:14:06.842Z,35.41
2016-11-02T05:15:08.385Z,35.41
2016-11-02T05:16:07.753Z,35.41
2016-11-02T05:17:07.176Z,35.21
2016-11-02T05:18:07.910Z,35.41
2016-11-02T05:19:09.826Z,35.41
2016-11-02T05:20:07.196Z,35.31
2016-11-02T05:21:08.248Z,35.31
2016-11-02T05:22:07.993Z,35.21
2016-11-02T05:23:07.349Z,35.41
2016-11-02T05:24:08.271Z,35.21
2016-11-02T05:25:08.163Z,35.5
2016-11-02T05:26:07.111Z,35.31
2016-11-02T05:27:06.930Z,35.41
2016-11-02T05:28:08.287Z,35.41
2016-11-02T05:29:07.595Z,35.5
2016-11-02T05:30:08.567Z,35.31
2016-11-02T05:31:08.409Z,35.31
2016-11-02T05:32:07.822Z,35.31
2016-11-02T05:33:07.381Z,35.5
2016-11-02T05:34:09.929Z,35.41
2016-11-02T05:35:07.529Z,35.31
2016-11-02T05:36:06.993Z,35.12
2016-11-02T05:37:08.121Z,35.12
2016-11-02T05:38:07.997Z,35.12
2016-11-02T05:39:07.014Z,34.92
2016-11-02T05:40:07.022Z,35.02
2016-11-02T05:41:09.534Z,34.92
2016-11-02T05:42:07.395Z,34.83
2016-11-02T05:43:08.343Z,35.12
2016-11-02T05:44:07.896Z,35.02
2016-11-02T05:45:07.570Z,34.92
2016-11-02T05:46:08.488Z,34.83
2016-11-02T05:47:08.332Z,34.83
2016-11-02T05:48:07.743Z,35.12
2016-11-02T05:49:07.084Z,34.83
2016-11-02T05:50:08.509Z,34.83
2016-11-02T05:51:07.761Z,34.83
2016-11-02T05:52:09.122Z,34.75
2016-11-02T05:53:08.473Z,34.73
2016-11-02T05:54:07.622Z,34.83
2016-11-02T05:55:07.441Z,34.73
2016-11-02T05:56:10.197Z,34.83
2016-11-02T05:57:08.058Z,34.73
2016-11-02T05:58:07.460Z,34.73
2016-11-02T05:59:22.716Z,34.73
2016-11-02T06:00:07.867Z,34.75
2016-11-02T06:01:07.227Z,34.63
2016-11-02T06:02:07.175Z,34.73
2016-11-02T06:03:08.353Z,34.84
2016-11-02T06:04:07.618Z,34.94
2016-11-02T06:05:08.591Z,34.73
2016-11-02T06:06:08.168Z,34.65
2016-11-02T06:07:07.784Z,34.83
2016-11-02T06:08:08.586Z,35.12
2016-11-02T06:09:08.338Z,35.12
2016-11-02T06:10:07.910Z,35.02
2016-11-02T06:11:07.286Z,35.02
2016-11-02T06:12:08.346Z,35.12
2016-11-02T06:13:07.719Z,35.12
2016-11-02T06:14:08.986Z,35.12
2016-11-02T06:15:08.633Z,35.12
2016-11-02T06:16:07.839Z,35.02
2016-11-02T06:17:07.588Z,35.12
2016-11-02T06:18:09.006Z,35.12
2016-11-02T06:19:08.284Z,35.12
2016-11-02T06:20:07.299Z,35.12
2016-11-02T06:21:07.304Z,35.21
2016-11-02T06:22:08.448Z,35.12
2016-11-02T06:23:07.707Z,35.31
2016-11-02T06:24:08.676Z,35.21
2016-11-02T06:25:08.311Z,35.12
2016-11-02T06:26:07.881Z,35.21
2016-11-02T06:27:07.345Z,35.12
2016-11-02T06:28:08.696Z,35.21
2016-11-02T06:29:09.504Z,35.02
2016-11-02T06:30:07.680Z,35.21
2016-11-02T06:31:08.503Z,35.21
2016-11-02T06:32:08.124Z,35.31
2016-11-02T06:33:07.746Z,35.12
2016-11-02T06:34:08.839Z,35.21
2016-11-02T06:35:07.945Z,35.02
2016-11-02T06:36:09.165Z,35.12
2016-11-02T06:37:08.463Z,35.21
2016-11-02T06:38:08.369Z,35.12
2016-11-02T06:39:07.741Z,35.21
2016-11-02T06:40:09.248Z,35.12
2016-11-02T06:41:08.544Z,35.21
2016-11-02T06:42:07.850Z,35.12
2016-11-02T06:43:07.454Z,35.12
2016-11-02T06:44:08.303Z,35.12
2016-11-02T06:45:07.987Z,35.12
2016-11-02T06:46:08.839Z,35.02
2016-11-02T06:47:08.788Z,35.12
2016-11-02T06:48:08.099Z,35.21
2016-11-02T06:49:07.808Z,35.12
2016-11-02T06:50:08.550Z,35.02
2016-11-02T06:51:09.720Z,35.12
2016-11-02T06:52:07.521Z,35.12
2016-11-02T06:53:08.885Z,35.12
2016-11-02T06:54:08.343Z,35.12
2016-11-02T06:55:07.541Z,35.12
2016-11-02T06:56:08.621Z,35.02
2016-11-02T06:57:08.155Z,35.12
2016-11-02T06:58:07.709Z,35.21
2016-11-02T06:59:08.868Z,35.12
2016-11-02T07:00:10.431Z,35.41
2016-11-02T07:01:07.897Z,35.21
2016-11-02T07:02:09.116Z,35.21
2016-11-02T07:03:08.764Z,35.21
2016-11-02T07:04:08.019Z,35.21
2016-11-02T07:05:08.987Z,35.12
2016-11-02T07:06:08.900Z,35.12
2016-11-02T07:07:07.831Z,35.31
2016-11-02T07:08:08.996Z,35.31
2016-11-02T07:09:08.692Z,35.21
2016-11-02T07:10:08.268Z,35.1
2016-11-02T07:11:07.649Z,35.12
2016-11-02T07:12:09.128Z,35.2
2016-11-02T07:13:09.937Z,35.21
2016-11-02T07:14:08.034Z,35.21
2016-11-02T07:15:09.039Z,35.29
2016-11-02T07:16:08.561Z,35.31
2016-11-02T07:17:07.689Z,35.41
2016-11-02T07:18:08.837Z,35.02
2016-11-02T07:19:08.687Z,35.02
2016-11-02T07:20:08.073Z,35.21
2016-11-02T07:21:07.721Z,35.02
2016-11-02T07:22:10.796Z,35.21
2016-11-02T07:23:07.801Z,35.21
2016-11-02T07:24:07.740Z,35.12
2016-11-02T07:25:08.685Z,35.12
2016-11-02T07:26:08.308Z,35.21
2016-11-02T07:27:09.206Z,34.92
2016-11-02T07:28:09.112Z,35.02
2016-11-02T07:29:08.407Z,35.31
2016-11-02T07:30:07.796Z,35.21
2016-11-02T07:31:09.223Z,34.73
2016-11-02T07:32:08.530Z,34.45
2016-11-02T07:33:07.805Z,34.07
2016-11-02T07:34:08.937Z,33.78
2016-11-02T07:35:10.151Z,33.12
2016-11-02T07:36:08.134Z,33.22
2016-11-02T07:37:08.931Z,32.82
2016-11-02T07:38:08.782Z,32.36
2016-11-02T07:39:08.157Z,32.07
2016-11-02T07:40:09.054Z,31.7
2016-11-02T07:41:08.587Z,31.5
2016-11-02T07:42:07.995Z,31.13
2016-11-02T07:43:09.176Z,30.84
2016-11-02T07:44:10.996Z,30.65
2016-11-02T07:45:08.022Z,30.37
2016-11-02T07:46:09.309Z,30.37
2016-11-02T07:47:09.143Z,29.88
2016-11-02T07:48:08.505Z,30.29
2016-11-02T07:49:07.915Z,29.51
2016-11-02T07:50:09.317Z,29.51
2016-11-02T07:51:08.265Z,29.41
2016-11-02T07:52:08.246Z,29.51
2016-11-02T07:53:09.304Z,29.04
2016-11-02T07:54:08.751Z,29.43
2016-11-02T07:55:08.275Z,29.43
2016-11-02T07:56:09.077Z,29.24
2016-11-02T07:57:10.432Z,29.24
2016-11-02T07:58:08.291Z,28.94
2016-11-02T08:00:09.012Z,29.14
2016-11-02T08:01:08.309Z,28.94
2016-11-02T08:02:08.006Z,29.04
2016-11-02T08:03:08.806Z,29.15
2016-11-02T08:04:08.472Z,28.86
2016-11-02T08:05:09.393Z,28.96
2016-11-02T08:06:11.190Z,29.05
2016-11-02T08:07:08.609Z,29.15
2016-11-02T08:08:09.461Z,29.25
2016-11-02T08:09:09.048Z,29.35
2016-11-02T08:10:08.718Z,29.05
2016-11-02T08:11:08.382Z,29.15
2016-11-02T08:12:09.533Z,28.96
2016-11-02T08:13:08.841Z,28.96
2016-11-02T08:14:08.090Z,29.05
2016-11-02T08:15:09.474Z,28.96
2016-11-02T08:16:08.963Z,29.05
2016-11-02T08:17:08.113Z,29.15
2016-11-02T08:18:09.246Z,29.15
2016-11-02T08:19:09.088Z,28.96
2016-11-02T08:20:08.499Z,28.86
2016-11-02T08:21:08.141Z,28.96
2016-11-02T08:22:08.896Z,28.76
2016-11-02T08:23:08.576Z,29.05
2016-11-02T08:24:09.488Z,28.76
2016-11-02T08:25:09.333Z,28.76
2016-11-02T08:26:08.326Z,28.86
2016-11-02T08:27:09.550Z,28.58
2016-11-02T08:28:09.793Z,28.57
2016-11-02T08:29:08.810Z,28.47
2016-11-02T08:30:09.712Z,27.98
2016-11-02T08:31:09.631Z,28.39
2016-11-02T08:32:08.668Z,28.08
2016-11-02T08:33:08.595Z,27.9
2016-11-02T08:34:09.605Z,28.38
2016-11-02T08:35:09.059Z,28.08
2016-11-02T08:36:08.567Z,28.09
2016-11-02T08:37:09.337Z,28.39
2016-11-02T08:38:09.436Z,28.39
2016-11-02T08:39:10.180Z,28.29
2016-11-02T08:40:09.460Z,28.39
2016-11-02T08:41:09.305Z,28.49
2016-11-02T08:42:08.614Z,28.29
2016-11-02T08:43:08.361Z,28.39
2016-11-02T08:44:09.477Z,28.19
2016-11-02T08:45:08.423Z,28.29
2016-11-02T08:46:09.706Z,28.49
2016-11-02T08:47:09.286Z,28.49
2016-11-02T08:48:08.596Z,28.39
2016-11-02T08:49:08.407Z,28.29
2016-11-02T08:50:09.717Z,28.29
2016-11-02T08:51:08.718Z,28.39
2016-11-02T08:52:09.992Z,28.19
2016-11-02T08:53:09.533Z,28
2016-11-02T08:54:08.838Z,28.19
2016-11-02T08:55:08.721Z,28.19
2016-11-02T08:56:09.779Z,28.39
2016-11-02T08:57:08.962Z,28.39
2016-11-02T08:58:08.424Z,28.39
2016-11-02T08:59:09.554Z,28.49
2016-11-02T09:00:09.451Z,28.39
2016-11-02T09:01:10.319Z,28.49
2016-11-02T09:02:08.456Z,28.19
2016-11-02T09:03:11.132Z,28.29
2016-11-02T09:04:08.829Z,28.29
2016-11-02T09:05:08.581Z,28.49
2016-11-02T09:06:09.685Z,28.39
2016-11-02T09:07:08.638Z,28.29
2016-11-02T09:08:09.865Z,28.29
2016-11-02T09:09:09.487Z,28.09
2016-11-02T09:10:08.813Z,28.09
2016-11-02T09:11:08.522Z,28.19
2016-11-02T09:12:09.891Z,28.29
2016-11-02T09:13:08.933Z,28.19
2016-11-02T09:14:08.645Z,28.29
2016-11-02T09:15:09.920Z,28.19
2016-11-02T09:16:09.387Z,28.29
2016-11-02T09:17:08.571Z,28.19
2016-11-02T09:18:09.930Z,28.29
2016-11-02T09:19:09.179Z,28.29
2016-11-02T09:20:08.594Z,28.39
2016-11-02T09:21:09.770Z,28.49
2016-11-02T09:22:09.667Z,28.58
2016-11-02T09:23:10.420Z,28.78
2016-11-02T09:24:08.628Z,28.88
2016-11-02T09:25:09.424Z,29.05
2016-11-02T09:26:08.736Z,28.76
2016-11-02T09:27:08.649Z,28.88
2016-11-02T09:28:09.698Z,28.76
2016-11-02T09:29:09.173Z,28.88
2016-11-02T09:30:08.673Z,28.96
2016-11-02T09:31:09.729Z,28.78
2016-11-02T09:32:09.031Z,28.78
2016-11-02T09:33:09.010Z,29.15
2016-11-02T09:34:10.155Z,28.66
2016-11-02T09:35:09.513Z,28.58
2016-11-02T09:36:09.031Z,28.58
2016-11-02T09:37:09.867Z,28.09
2016-11-02T09:38:09.274Z,28.68
2016-11-02T09:39:09.056Z,28.78
2016-11-02T09:40:09.865Z,28.88
2016-11-02T09:41:09.401Z,28.78
2016-11-02T09:42:08.767Z,28.97
2016-11-02T09:43:09.988Z,28.78
2016-11-02T09:44:09.618Z,28.68
2016-11-02T09:45:08.881Z,28.68
2016-11-02T09:46:08.801Z,28.68
2016-11-02T09:47:11.569Z,28.78
2016-11-02T09:48:08.955Z,28.97
2016-11-02T09:49:08.825Z,28.88
2016-11-02T09:50:09.769Z,28.78
2016-11-02T09:51:09.443Z,28.78
2016-11-02T09:52:10.275Z,28.97
2016-11-02T09:53:09.894Z,28.88
2016-11-02T09:54:09.556Z,28.78
2016-11-02T09:55:08.919Z,28.78
2016-11-02T09:56:09.929Z,28.58
2016-11-02T09:57:09.679Z,28.58
2016-11-02T09:58:09.225Z,28.68
2016-11-02T09:59:10.241Z,29.06
2016-11-02T10:00:09.806Z,29.06
2016-11-02T10:01:08.913Z,29.06
2016-11-02T10:02:10.083Z,29.06
2016-11-02T10:03:09.929Z,29.46
2016-11-02T10:04:09.042Z,29.54
2016-11-02T10:05:10.206Z,29.83
2016-11-02T10:06:10.100Z,29.05
2016-11-02T10:07:09.462Z,29.64
2016-11-02T10:08:08.969Z,29.64
2016-11-02T10:09:12.125Z,29.44
2016-11-02T10:10:09.482Z,29.54
2016-11-02T10:11:10.452Z,29.54
2016-11-02T10:12:10.372Z,29.62
2016-11-02T10:13:09.339Z,30.12
2016-11-02T10:14:09.018Z,29.82
2016-11-02T10:15:10.470Z,29.44
2016-11-02T10:16:09.540Z,29.44
2016-11-02T10:17:09.042Z,29.64
2016-11-02T10:18:10.152Z,29.44
2016-11-02T10:19:09.901Z,29.74
2016-11-02T10:20:09.398Z,29.83
2016-11-02T10:21:10.123Z,29.83
2016-11-02T10:22:10.022Z,30.22
2016-11-02T10:23:09.549Z,30.41
2016-11-02T10:24:10.333Z,30.12
2016-11-02T10:25:10.174Z,29.74
2016-11-02T10:26:09.453Z,29.64
2016-11-02T10:27:10.422Z,30.22
2016-11-02T10:28:10.268Z,30.01
2016-11-02T10:29:24.141Z,30.12
2016-11-02T10:30:10.612Z,30.02
2016-11-02T10:31:11.837Z,30.12
2016-11-02T10:32:09.802Z,29.74
2016-11-02T10:33:09.482Z,29.44
2016-11-02T10:34:10.510Z,29.64
2016-11-02T10:35:09.880Z,29.54
2016-11-02T10:36:09.516Z,29.64
2016-11-02T10:37:10.246Z,29.64
2016-11-02T10:38:10.003Z,29.64
2016-11-02T10:39:09.524Z,30.12
2016-11-02T10:40:12.295Z,30.02
2016-11-02T10:41:09.823Z,30.32
2016-11-02T10:42:09.252Z,30.41
2016-11-02T10:43:10.538Z,30.11
2016-11-02T10:44:10.240Z,30.01
2016-11-02T10:45:09.292Z,30.3
2016-11-02T10:46:10.535Z,30.32
2016-11-02T10:47:10.215Z,30.3
2016-11-02T10:48:09.544Z,30.32
2016-11-02T10:49:10.593Z,30.41
2016-11-02T10:50:10.861Z,30.21
2016-11-02T10:51:10.127Z,30.4
2016-11-02T10:52:10.987Z,30.3
2016-11-02T10:53:12.553Z,30.11
2016-11-02T10:54:10.224Z,30.51
2016-11-02T10:55:11.132Z,30.59
2016-11-02T10:56:10.818Z,30.21
2016-11-02T10:57:10.109Z,30.11
2016-11-02T10:58:09.502Z,30.21
2016-11-02T10:59:10.880Z,30.88
2016-11-02T11:00:09.939Z,30.3
2016-11-02T11:01:09.784Z,30.32
2016-11-02T11:02:10.606Z,30.02
2016-11-02T11:03:10.035Z,30.22
2016-11-02T11:04:09.840Z,30.12
2016-11-02T11:05:10.691Z,29.83
2016-11-02T11:06:10.147Z,30.02
2016-11-02T11:07:09.454Z,29.74
2016-11-02T11:08:10.739Z,29.64
2016-11-02T11:09:10.271Z,29.74
2016-11-02T11:10:09.579Z,30.32
2016-11-02T11:11:10.859Z,30.22
2016-11-02T11:12:10.444Z,30.24
2016-11-02T11:13:11.623Z,30.32
2016-11-02T11:14:09.568Z,30.02
2016-11-02T11:15:10.567Z,30.41
2016-11-02T11:16:09.823Z,30.32
2016-11-02T11:17:09.563Z,30.22
2016-11-02T11:18:10.650Z,30.24
2016-11-02T11:19:10.344Z,30.12
2016-11-02T11:20:09.529Z,29.94
2016-11-02T11:21:10.604Z,30.43
2016-11-02T11:22:10.121Z,30.14
2016-11-02T11:23:09.556Z,29.94
2016-11-02T11:24:10.814Z,30.04
2016-11-02T11:25:10.552Z,30.43
2016-11-02T11:26:09.835Z,30.33
2016-11-02T11:27:09.587Z,30.43
2016-11-02T11:28:10.681Z,30.43
2016-11-02T11:29:09.675Z,30.43
2016-11-02T11:30:11.002Z,30.43
2016-11-02T11:31:10.540Z,30.72
2016-11-02T11:32:10.109Z,30.91
2016-11-02T11:33:11.078Z,30.72
2016-11-02T11:34:10.610Z,30.82
2016-11-02T11:35:10.631Z,30.41
2016-11-02T11:36:09.709Z,30.61
2016-11-02T11:37:12.656Z,30.41
2016-11-02T11:38:10.353Z,30.61
2016-11-02T11:39:09.996Z,30.72
2016-11-02T11:40:11.058Z,30.51
2016-11-02T11:41:10.227Z,30.24
2016-11-02T11:42:09.757Z,30.32
2016-11-02T11:43:10.826Z,30.32
2016-11-02T11:44:10.663Z,30.32
2016-11-02T11:45:09.778Z,30.02
2016-11-02T11:46:11.302Z,30.02
2016-11-02T11:47:10.510Z,30.32
2016-11-02T11:48:10.081Z,30.02
2016-11-02T11:49:11.082Z,30.12
2016-11-02T11:50:10.942Z,30.51
2016-11-02T11:51:09.889Z,30.32
2016-11-02T11:52:09.834Z,30.22
2016-11-02T11:53:11.017Z,30.41
2016-11-02T11:54:10.063Z,30.02
2016-11-02T11:55:11.184Z,30.22
2016-11-02T11:56:11.190Z,30.32
2016-11-02T11:57:10.251Z,30.22
2016-11-02T11:58:09.831Z,30.02
2016-11-02T11:59:13.215Z,30.41
2016-11-02T12:00:10.362Z,30.02
2016-11-02T12:01:09.905Z,30.22
2016-11-02T12:02:11.220Z,30.02
2016-11-02T12:03:11.284Z,30.12
2016-11-02T12:04:10.866Z,30.02
2016-11-02T12:05:10.172Z,30.32
2016-11-02T12:06:10.207Z,30.14
2016-11-02T12:07:11.300Z,30.22
2016-11-02T12:08:10.547Z,30.14
2016-11-02T12:09:09.966Z,29.55
2016-11-02T12:10:13.255Z,30.33
2016-11-02T12:11:10.436Z,30.22
2016-11-02T12:12:10.253Z,30.61
2016-11-02T12:13:11.328Z,30.32
2016-11-02T12:14:10.867Z,30.61
2016-11-02T12:15:10.378Z,30.41
2016-11-02T12:16:11.133Z,29.83
2016-11-02T12:17:10.978Z,30.02
2016-11-02T12:18:10.302Z,29.93
2016-11-02T12:19:11.406Z,30.41
2016-11-02T12:20:11.098Z,30.32
2016-11-02T12:21:10.416Z,30.22
2016-11-02T12:22:10.090Z,30.12
2016-11-02T12:23:10.963Z,30.32
2016-11-02T12:24:10.222Z,30.3
2016-11-02T12:25:10.041Z,30.41
2016-11-02T12:26:11.344Z,30.02
2016-11-02T12:27:10.402Z,30.22
2016-11-02T12:28:10.115Z,30.32
2016-11-02T12:29:11.253Z,30.41
2016-11-02T12:30:10.519Z,30.33
2016-11-02T12:31:10.418Z,30.24
2016-11-02T12:32:13.162Z,30.04
2016-11-02T12:33:10.999Z,30.62
2016-11-02T12:34:10.113Z,29.94
2016-11-02T12:35:11.172Z,29.93
2016-11-02T12:36:10.776Z,29.75
2016-11-02T12:37:10.450Z,30.52
2016-11-02T12:38:10.144Z,30.62
2016-11-02T12:39:10.885Z,30.24
2016-11-02T12:40:10.534Z,30.14
2016-11-02T12:41:11.569Z,30.14
2016-11-02T12:42:11.324Z,30.14
2016-11-02T12:43:10.641Z,29.94
2016-11-02T12:44:10.255Z,29.94
2016-11-02T12:45:11.179Z,30.24
2016-11-02T12:46:10.586Z,30.24
2016-11-02T12:47:10.529Z,30.14
2016-11-02T12:48:11.561Z,30.24
2016-11-02T12:49:10.610Z,30.15
2016-11-02T12:50:10.278Z,30.33
2016-11-02T12:51:11.613Z,30.24
2016-11-02T12:52:10.729Z,30.24
2016-11-02T12:53:10.263Z,30.33
2016-11-02T12:54:13.371Z,30.05
2016-11-02T12:55:11.217Z,30.43